Nearby METAR Reports

 

KMTN - Baltimore/Martin, Maryland, USA
Distance from station: SSE 8mi, 13km
Updated: Sat, 06-Feb-2016 4:50pm EST
Partly cloudy
Partly cloudy
 Wind from SSE
Wind: SSE 10 mph , 17 km/h
Temperature: 39°F , 4°C
Wind Chill: 32°F , 0°C
Dew Point: 30°F , -1°C
Humidity: 70%
Barometer: 30.33 inHg , 1027.1 hPa
Clouds: Partly cloudy
Visibility: 10 miles , 16 km
Cloud details: Partly cloudy 15000 ft
2016/02/06 21:50 KMTN 062150Z 15009KT 10SM SCT150 04/M01 A3033
KDMH - Baltimore/Dwntwn, Maryland, USA
Distance from station: SW 12mi, 19km
Updated: Sat, 06-Feb-2016 4:54pm EST

 
Temperature: 43°F , 6°C
Dew Point: 18°F , -8°C
Humidity: 36%
Barometer: 30.29 inHg , 1025.7 hPa
2016/02/06 21:54 KDMH 062154Z AUTO 06/M08 A3029 RMK AO1 SLP258 T00611083
 
KBWI - Balto/Wash Intl, Maryland, USA
Distance from station: SSW 20mi, 33km
Updated: Sat, 06-Feb-2016 4:54pm EST
Partly cloudy
Partly cloudy
 Wind from SW
Wind: SW 6 mph , 9 km/h
Temperature: 43°F , 6°C
Wind Chill: 39°F , 4°C
Dew Point: 18°F , -8°C
Humidity: 36%
Barometer: 30.30 inHg , 1026.1 hPa
Clouds: Partly cloudy
Visibility: 10 miles , 16 km
Cloud details: Few Clouds 20000 ft
Partly cloudy 25000 ft
2016/02/06 21:54 KBWI 062154Z 23005KT 10SM FEW200 SCT250 06/M08 A3030 RMK AO2 SLP262 T00561083
KDMW - Carroll Cnty, Maryland, USA
Distance from station: WNW 30mi, 48km
Updated: Sat, 06-Feb-2016 5:45pm EST
Clear
Clear
 Wind from SW
Wind: SW 3 mph , 6 km/h
Temperature: 37°F , 3°C
Dew Point: 25°F , -4°C
Humidity: 60%
Barometer: 30.27 inHg , 1025.1 hPa
Clouds: Clear
Visibility: 10 miles , 16 km
2016/02/06 22:45 KDMW 062245Z AUTO 23003KT 10SM CLR 03/M04 A3027 RMK AO2
 
KNAK - Annapolis/Naval, Maryland, USA
Distance from station: S 30mi, 48km
Updated: Sat, 06-Feb-2016 4:54pm EST
Clear
Clear
 Wind from S
Wind: S 8 mph , 13 km/h
Temperature: 39°F , 4°C
Wind Chill: 33°F , 1°C
Dew Point: 23°F , -5°C
Humidity: 52%
Barometer: 30.32 inHg , 1026.8 hPa
Clouds: Clear
Visibility: 10 miles , 16 km
2016/02/06 21:54 KNAK 062154Z AUTO 19007KT 10SM CLR 04/M05 A3032 RMK AO2 SLP267 T00441050
KW29 - Stevensville, Maryland, USA
Distance from station: SSE 31mi, 50km
Updated: Sat, 06-Feb-2016 5:45pm EST

 Wind from calm
Wind: Calm
Temperature: 39°F , 4°C
Dew Point: 19°F , -7°C
Humidity: 45%
Barometer: 30.33 inHg , 1027.1 hPa
Visibility: 10 miles , 16 km
2016/02/06 22:45 KW29 062245Z AUTO 00000KT 10SM 04/M07 A3033 RMK AO1
 
KCGS - College Park, Maryland, USA
Distance from station: SW 38mi, 61km
Updated: Sat, 06-Feb-2016 5:40pm EST
Clear
Clear
 Wind from calm
Wind: Calm
Temperature: 43°F , 6°C
Dew Point: 18°F , -8°C
Humidity: 36%
Barometer: 30.31 inHg , 1026.4 hPa
Clouds: Clear
Visibility: 10 miles , 16 km
2016/02/06 22:40 KCGS 062240Z AUTO 00000KT 10SM CLR 06/M08 A3031 RMK AO1
KGAI - Gaithersburg, Maryland, USA
Distance from station: WSW 40mi, 65km
Updated: Sat, 06-Feb-2016 5:35pm EST
Clear
Clear
 Wind from S
Wind: S 3 mph , 6 km/h
Temperature: 39°F , 4°C
Dew Point: 16°F , -9°C
Humidity: 39%
Barometer: 30.32 inHg , 1026.8 hPa
Clouds: Clear
Visibility: 10 miles , 16 km
2016/02/06 22:35 KGAI 062235Z AUTO 19003KT 10SM CLR 04/M09 A3032 RMK AO1
 
KTHV - York, Pennsylvania, USA
Distance from station: NNW 40mi, 65km
Updated: Sat, 06-Feb-2016 5:53pm EST
Clear
Clear
 Wind from S
Wind: S 6 mph , 9 km/h
Temperature: 37°F , 3°C
Wind Chill: 32°F , 0°C
Dew Point: 19°F , -7°C
Humidity: 48%
Barometer: 30.27 inHg , 1025.1 hPa
Clouds: Clear
Visibility: 10 miles , 16 km
2016/02/06 22:53 KTHV 062253Z AUTO 19005KT 10SM CLR 03/M07 A3027 RMK AO2 SLP257 T00281072
KFDK - Frederick, Maryland, USA
Distance from station: W 47mi, 75km
Updated: Sat, 06-Feb-2016 5:50pm EST
Clear
Clear
 Wind from S
Wind: S 3 mph , 6 km/h
Temperature: 39°F , 4°C
Dew Point: 23°F , -5°C
Humidity: 52%
Barometer: 30.31 inHg , 1026.4 hPa
Clouds: Clear
Visibility: 10 miles , 16 km
2016/02/06 22:50 KFDK 062250Z 17003KT 10SM SKC 04/M05 A3031
 
KESN - Easton/Newnam, Maryland, USA
Distance from station: SSE 48mi, 78km
Updated: Sat, 06-Feb-2016 4:50pm EST
Mostly cloudy
Mostly cloudy
 Wind from WSW
Wind: WSW 8 mph , 13 km/h
Temperature: 41°F , 5°C
Wind Chill: 36°F , 2°C
Dew Point: 19°F , -7°C
Humidity: 42%
Barometer: 30.35 inHg , 1027.8 hPa
Clouds: Mostly cloudy
Visibility: 10 miles , 16 km
Cloud details: Mostly cloudy 20000 ft
2016/02/06 21:50 KESN 062150Z 25007KT 10SM BKN200 05/M07 A3035
KDCA - Washington/Natl, Washington D.c., USA
Distance from station: SW 49mi, 79km
Updated: Sat, 06-Feb-2016 5:52pm EST
Mostly cloudy
Mostly cloudy
 Wind from SSW
Wind: SSW 5 mph , 7 km/h
Temperature: 41°F , 5°C
Wind Chill: 38°F , 3°C
Dew Point: 18°F , -8°C
Humidity: 39%
Barometer: 30.32 inHg , 1026.8 hPa
Clouds: Mostly cloudy
Visibility: 10 miles , 16 km
Cloud details: Partly cloudy 15000 ft
Mostly cloudy 20000 ft
2016/02/06 22:52 KDCA 062252Z 20004KT 10SM SCT150 BKN200 05/M08 A3032 RMK AO2 SLP266 T00501078
 
KLNS - Lancaster, Pennsylvania, USA
Distance from station: N 49mi, 79km
Updated: Sat, 06-Feb-2016 5:53pm EST
Clear
Clear
 Wind from SSW
Wind: SSW 6 mph , 9 km/h
Temperature: 37°F , 3°C
Wind Chill: 32°F , 0°C
Dew Point: 19°F , -7°C
Humidity: 48%
Barometer: 30.27 inHg , 1025.1 hPa
Clouds: Clear
Visibility: 10 miles , 16 km
2016/02/06 22:53 KLNS 062253Z 20005KT 10SM CLR 03/M07 A3027 RMK AO2 SLP256 T00281067
KILG - Wilmington, Delaware, USA
Distance from station: ENE 50mi, 81km
Updated: Sat, 06-Feb-2016 5:51pm EST
Clear
Clear
 Wind from SSE
Wind: SSE 5 mph , 7 km/h
Temperature: 37°F , 3°C
Wind Chill: 33°F , 1°C
Dew Point: 25°F , -4°C
Humidity: 60%
Barometer: 30.32 inHg , 1026.8 hPa
Clouds: Clear
Visibility: 10 miles , 16 km
2016/02/06 22:51 KILG 062251Z AUTO 16004KT 10SM CLR 03/M04 A3032 RMK AO2 SLP266 T00281039